sensor_id;sensor_type;location;lat;lon;timestamp;P1;durP1;ratioP1;P2;durP2;ratioP2
74577;SDS011;63173;49.086;33.418;2023-03-31T00:01:09;9.00;;;2.17;;
74577;SDS011;63173;49.086;33.418;2023-03-31T00:03:35;7.82;;;1.88;;
74577;SDS011;63173;49.086;33.418;2023-03-31T00:06:03;6.40;;;2.40;;
74577;SDS011;63173;49.086;33.418;2023-03-31T00:08:29;8.65;;;2.17;;
74577;SDS011;63173;49.086;33.418;2023-03-31T00:11:00;9.57;;;2.85;;
74577;SDS011;63173;49.086;33.418;2023-03-31T00:13:27;6.22;;;2.25;;
74577;SDS011;63173;49.086;33.418;2023-03-31T00:15:58;10.80;;;2.50;;
74577;SDS011;63173;49.086;33.418;2023-03-31T00:18:25;10.77;;;2.67;;
74577;SDS011;63173;49.086;33.418;2023-03-31T00:20:54;9.27;;;2.25;;
74577;SDS011;63173;49.086;33.418;2023-03-31T00:23:26;12.55;;;2.97;;
74577;SDS011;63173;49.086;33.418;2023-03-31T00:25:54;13.70;;;3.03;;
74577;SDS011;63173;49.086;33.418;2023-03-31T00:28:20;10.90;;;2.85;;
74577;SDS011;63173;49.086;33.418;2023-03-31T00:30:46;7.72;;;2.88;;
74577;SDS011;63173;49.086;33.418;2023-03-31T00:33:12;9.85;;;2.60;;
74577;SDS011;63173;49.086;33.418;2023-03-31T00:35:38;16.83;;;3.40;;
74577;SDS011;63173;49.086;33.418;2023-03-31T00:38:04;12.05;;;3.10;;
74577;SDS011;63173;49.086;33.418;2023-03-31T00:40:32;6.43;;;2.78;;
74577;SDS011;63173;49.086;33.418;2023-03-31T00:42:58;9.15;;;2.92;;
74577;SDS011;63173;49.086;33.418;2023-03-31T00:45:28;7.22;;;2.60;;
74577;SDS011;63173;49.086;33.418;2023-03-31T00:48:00;6.43;;;2.97;;
74577;SDS011;63173;49.086;33.418;2023-03-31T00:50:34;6.57;;;2.30;;
74577;SDS011;63173;49.086;33.418;2023-03-31T00:53:15;5.20;;;2.42;;
74577;SDS011;63173;49.086;33.418;2023-03-31T00:55:44;6.47;;;2.97;;
74577;SDS011;63173;49.086;33.418;2023-03-31T00:58:15;7.25;;;2.97;;
74577;SDS011;63173;49.086;33.418;2023-03-31T01:00:47;9.98;;;3.15;;
74577;SDS011;63173;49.086;33.418;2023-03-31T01:03:15;5.90;;;2.17;;
74577;SDS011;63173;49.086;33.418;2023-03-31T01:05:43;6.95;;;3.10;;
74577;SDS011;63173;49.086;33.418;2023-03-31T01:08:12;7.57;;;2.40;;
74577;SDS011;63173;49.086;33.418;2023-03-31T01:10:48;10.50;;;2.65;;
74577;SDS011;63173;49.086;33.418;2023-03-31T01:13:16;8.10;;;2.90;;
74577;SDS011;63173;49.086;33.418;2023-03-31T01:15:44;12.52;;;3.42;;
74577;SDS011;63173;49.086;33.418;2023-03-31T01:18:10;6.55;;;3.00;;
74577;SDS011;63173;49.086;33.418;2023-03-31T01:26:19;6.78;;;2.45;;
74577;SDS011;63173;49.086;33.418;2023-03-31T01:29:26;7.22;;;3.00;;
74577;SDS011;63173;49.086;33.418;2023-03-31T01:32:24;10.85;;;3.05;;
74577;SDS011;63173;49.086;33.418;2023-03-31T01:37:58;6.03;;;2.72;;
74577;SDS011;63173;49.086;33.418;2023-03-31T01:51:51;11.70;;;3.78;;
74577;SDS011;63173;49.086;33.418;2023-03-31T01:54:29;10.05;;;3.92;;
74577;SDS011;63173;49.086;33.418;2023-03-31T01:57:04;10.73;;;4.32;;
74577;SDS011;63173;49.086;33.418;2023-03-31T01:59:52;13.07;;;4.70;;
74577;SDS011;63173;49.086;33.418;2023-03-31T02:02:30;7.85;;;2.90;;
74577;SDS011;63173;49.086;33.418;2023-03-31T02:05:02;8.88;;;2.85;;
74577;SDS011;63173;49.086;33.418;2023-03-31T02:07:38;11.32;;;3.30;;
74577;SDS011;63173;49.086;33.418;2023-03-31T02:10:08;12.60;;;5.38;;
74577;SDS011;63173;49.086;33.418;2023-03-31T02:12:37;14.23;;;5.72;;
74577;SDS011;63173;49.086;33.418;2023-03-31T02:15:08;14.80;;;6.75;;
74577;SDS011;63173;49.086;33.418;2023-03-31T02:17:35;14.55;;;4.30;;
74577;SDS011;63173;49.086;33.418;2023-03-31T02:20:06;6.25;;;2.78;;
74577;SDS011;63173;49.086;33.418;2023-03-31T02:22:40;5.32;;;2.30;;
74577;SDS011;63173;49.086;33.418;2023-03-31T02:25:10;6.97;;;2.78;;
74577;SDS011;63173;49.086;33.418;2023-03-31T02:27:40;5.65;;;2.50;;
74577;SDS011;63173;49.086;33.418;2023-03-31T02:30:10;10.82;;;3.70;;
74577;SDS011;63173;49.086;33.418;2023-03-31T02:32:41;24.55;;;7.38;;
74577;SDS011;63173;49.086;33.418;2023-03-31T02:35:09;40.10;;;11.80;;
74577;SDS011;63173;49.086;33.418;2023-03-31T02:37:38;23.92;;;8.35;;
74577;SDS011;63173;49.086;33.418;2023-03-31T02:40:06;16.67;;;6.07;;
74577;SDS011;63173;49.086;33.418;2023-03-31T02:42:38;21.75;;;6.80;;
74577;SDS011;63173;49.086;33.418;2023-03-31T02:45:06;20.90;;;3.50;;
74577;SDS011;63173;49.086;33.418;2023-03-31T02:48:00;7.55;;;2.70;;
74577;SDS011;63173;49.086;33.418;2023-03-31T02:50:25;14.40;;;3.60;;
74577;SDS011;63173;49.086;33.418;2023-03-31T02:53:01;13.30;;;5.40;;
74577;SDS011;63173;49.086;33.418;2023-03-31T03:01:14;16.15;;;4.32;;
74577;SDS011;63173;49.086;33.418;2023-03-31T03:12:12;13.35;;;4.22;;
74577;SDS011;63173;49.086;33.418;2023-03-31T03:14:51;9.52;;;3.15;;
74577;SDS011;63173;49.086;33.418;2023-03-31T03:17:25;6.40;;;2.38;;
74577;SDS011;63173;49.086;33.418;2023-03-31T03:19:58;11.00;;;3.13;;
74577;SDS011;63173;49.086;33.418;2023-03-31T03:22:25;8.73;;;3.80;;
74577;SDS011;63173;49.086;33.418;2023-03-31T03:24:51;13.98;;;5.85;;
74577;SDS011;63173;49.086;33.418;2023-03-31T03:27:18;10.35;;;4.75;;
74577;SDS011;63173;49.086;33.418;2023-03-31T03:32:12;20.25;;;9.05;;
74577;SDS011;63173;49.086;33.418;2023-03-31T03:34:37;29.77;;;13.05;;
74577;SDS011;63173;49.086;33.418;2023-03-31T03:37:03;15.20;;;6.68;;
74577;SDS011;63173;49.086;33.418;2023-03-31T03:39:29;13.27;;;6.28;;
74577;SDS011;63173;49.086;33.418;2023-03-31T03:41:55;17.10;;;7.50;;
74577;SDS011;63173;49.086;33.418;2023-03-31T03:44:21;19.17;;;7.88;;
74577;SDS011;63173;49.086;33.418;2023-03-31T03:46:46;17.52;;;7.65;;
74577;SDS011;63173;49.086;33.418;2023-03-31T03:49:12;19.45;;;8.10;;
74577;SDS011;63173;49.086;33.418;2023-03-31T03:51:37;17.00;;;6.55;;
74577;SDS011;63173;49.086;33.418;2023-03-31T03:54:03;18.42;;;7.20;;
74577;SDS011;63173;49.086;33.418;2023-03-31T03:56:28;16.75;;;6.85;;
74577;SDS011;63173;49.086;33.418;2023-03-31T03:58:53;18.75;;;7.03;;
74577;SDS011;63173;49.086;33.418;2023-03-31T04:01:19;17.10;;;6.60;;
74577;SDS011;63173;49.086;33.418;2023-03-31T04:03:45;14.23;;;6.28;;
74577;SDS011;63173;49.086;33.418;2023-03-31T04:06:10;15.57;;;6.07;;
74577;SDS011;63173;49.086;33.418;2023-03-31T04:08:35;16.17;;;6.45;;
74577;SDS011;63173;49.086;33.418;2023-03-31T04:11:01;12.88;;;6.28;;
74577;SDS011;63173;49.086;33.418;2023-03-31T04:13:27;24.95;;;9.55;;
74577;SDS011;63173;49.086;33.418;2023-03-31T04:15:52;22.55;;;8.02;;
74577;SDS011;63173;49.086;33.418;2023-03-31T04:18:18;12.35;;;5.63;;
74577;SDS011;63173;49.086;33.418;2023-03-31T04:20:50;12.43;;;5.72;;
74577;SDS011;63173;49.086;33.418;2023-03-31T04:23:28;13.88;;;5.90;;
74577;SDS011;63173;49.086;33.418;2023-03-31T04:25:54;13.27;;;6.13;;
74577;SDS011;63173;49.086;33.418;2023-03-31T04:28:19;15.40;;;6.72;;
74577;SDS011;63173;49.086;33.418;2023-03-31T04:30:45;15.55;;;6.93;;
74577;SDS011;63173;49.086;33.418;2023-03-31T04:33:10;14.98;;;6.05;;
74577;SDS011;63173;49.086;33.418;2023-03-31T04:35:39;12.68;;;6.00;;
74577;SDS011;63173;49.086;33.418;2023-03-31T04:38:16;14.32;;;6.30;;
74577;SDS011;63173;49.086;33.418;2023-03-31T04:40:47;14.90;;;6.13;;
74577;SDS011;63173;49.086;33.418;2023-03-31T04:43:13;12.63;;;5.75;;
74577;SDS011;63173;49.086;33.418;2023-03-31T04:45:39;18.00;;;7.35;;
74577;SDS011;63173;49.086;33.418;2023-03-31T04:48:05;21.85;;;9.07;;
74577;SDS011;63173;49.086;33.418;2023-03-31T04:50:30;24.45;;;9.27;;
74577;SDS011;63173;49.086;33.418;2023-03-31T04:52:56;16.42;;;7.65;;
74577;SDS011;63173;49.086;33.418;2023-03-31T04:55:22;16.90;;;7.28;;
74577;SDS011;63173;49.086;33.418;2023-03-31T04:57:47;18.73;;;6.72;;
74577;SDS011;63173;49.086;33.418;2023-03-31T05:00:13;19.67;;;7.75;;
74577;SDS011;63173;49.086;33.418;2023-03-31T05:02:39;16.30;;;6.95;;
74577;SDS011;63173;49.086;33.418;2023-03-31T05:05:05;21.70;;;7.63;;
74577;SDS011;63173;49.086;33.418;2023-03-31T05:07:31;16.73;;;7.15;;
74577;SDS011;63173;49.086;33.418;2023-03-31T05:09:56;17.08;;;6.85;;
74577;SDS011;63173;49.086;33.418;2023-03-31T05:12:22;15.50;;;6.65;;
74577;SDS011;63173;49.086;33.418;2023-03-31T05:14:47;15.02;;;5.93;;
74577;SDS011;63173;49.086;33.418;2023-03-31T05:17:13;13.20;;;5.43;;
74577;SDS011;63173;49.086;33.418;2023-03-31T05:19:38;11.45;;;5.25;;
74577;SDS011;63173;49.086;33.418;2023-03-31T05:22:04;38.78;;;9.90;;
74577;SDS011;63173;49.086;33.418;2023-03-31T05:24:29;62.33;;;16.65;;
74577;SDS011;63173;49.086;33.418;2023-03-31T05:26:55;23.60;;;8.23;;
74577;SDS011;63173;49.086;33.418;2023-03-31T05:29:21;12.30;;;4.82;;
74577;SDS011;63173;49.086;33.418;2023-03-31T05:31:47;11.93;;;5.10;;
74577;SDS011;63173;49.086;33.418;2023-03-31T05:34:14;11.77;;;6.18;;
74577;SDS011;63173;49.086;33.418;2023-03-31T05:36:40;11.32;;;4.68;;
74577;SDS011;63173;49.086;33.418;2023-03-31T05:39:07;13.90;;;5.03;;
74577;SDS011;63173;49.086;33.418;2023-03-31T05:41:33;9.45;;;4.15;;
74577;SDS011;63173;49.086;33.418;2023-03-31T05:43:59;14.85;;;4.45;;
74577;SDS011;63173;49.086;33.418;2023-03-31T05:46:26;12.05;;;4.65;;
74577;SDS011;63173;49.086;33.418;2023-03-31T05:48:52;10.38;;;4.25;;
74577;SDS011;63173;49.086;33.418;2023-03-31T05:51:17;11.05;;;4.85;;
74577;SDS011;63173;49.086;33.418;2023-03-31T05:53:44;10.98;;;4.85;;
74577;SDS011;63173;49.086;33.418;2023-03-31T05:56:10;11.68;;;4.55;;
74577;SDS011;63173;49.086;33.418;2023-03-31T05:58:36;10.80;;;4.57;;
74577;SDS011;63173;49.086;33.418;2023-03-31T06:01:02;11.35;;;5.05;;
74577;SDS011;63173;49.086;33.418;2023-03-31T06:03:36;8.90;;;4.45;;
74577;SDS011;63173;49.086;33.418;2023-03-31T06:06:05;10.38;;;4.50;;
74577;SDS011;63173;49.086;33.418;2023-03-31T06:08:32;9.13;;;3.70;;
74577;SDS011;63173;49.086;33.418;2023-03-31T06:10:58;10.98;;;4.45;;
74577;SDS011;63173;49.086;33.418;2023-03-31T06:13:24;9.18;;;4.00;;
74577;SDS011;63173;49.086;33.418;2023-03-31T06:15:56;7.80;;;3.67;;
74577;SDS011;63173;49.086;33.418;2023-03-31T06:18:23;8.55;;;3.10;;
74577;SDS011;63173;49.086;33.418;2023-03-31T06:20:50;8.38;;;3.40;;
74577;SDS011;63173;49.086;33.418;2023-03-31T06:23:15;6.70;;;3.00;;
74577;SDS011;63173;49.086;33.418;2023-03-31T06:25:41;6.05;;;2.72;;
74577;SDS011;63173;49.086;33.418;2023-03-31T06:28:07;8.18;;;2.95;;
74577;SDS011;63173;49.086;33.418;2023-03-31T06:30:32;8.57;;;2.70;;
74577;SDS011;63173;49.086;33.418;2023-03-31T06:32:58;7.75;;;2.78;;
74577;SDS011;63173;49.086;33.418;2023-03-31T06:35:24;12.75;;;3.00;;
74577;SDS011;63173;49.086;33.418;2023-03-31T06:37:49;7.25;;;2.75;;
74577;SDS011;63173;49.086;33.418;2023-03-31T06:40:15;5.22;;;2.47;;
74577;SDS011;63173;49.086;33.418;2023-03-31T06:42:40;4.38;;;2.17;;
74577;SDS011;63173;49.086;33.418;2023-03-31T06:45:06;7.63;;;2.60;;
74577;SDS011;63173;49.086;33.418;2023-03-31T06:47:31;4.20;;;2.08;;
74577;SDS011;63173;49.086;33.418;2023-03-31T06:49:57;7.20;;;1.85;;
74577;SDS011;63173;49.086;33.418;2023-03-31T06:52:22;4.22;;;1.92;;
74577;SDS011;63173;49.086;33.418;2023-03-31T06:54:47;4.35;;;1.75;;
74577;SDS011;63173;49.086;33.418;2023-03-31T06:57:13;2.92;;;1.60;;
74577;SDS011;63173;49.086;33.418;2023-03-31T06:59:39;3.75;;;1.50;;
74577;SDS011;63173;49.086;33.418;2023-03-31T07:02:04;5.45;;;1.80;;
74577;SDS011;63173;49.086;33.418;2023-03-31T07:04:30;4.40;;;1.95;;
74577;SDS011;63173;49.086;33.418;2023-03-31T07:06:56;4.32;;;2.00;;
74577;SDS011;63173;49.086;33.418;2023-03-31T07:09:23;5.40;;;1.95;;
74577;SDS011;63173;49.086;33.418;2023-03-31T07:11:48;4.80;;;1.90;;
74577;SDS011;63173;49.086;33.418;2023-03-31T07:14:14;2.50;;;1.25;;
74577;SDS011;63173;49.086;33.418;2023-03-31T07:16:39;3.33;;;1.52;;
74577;SDS011;63173;49.086;33.418;2023-03-31T07:19:05;4.45;;;1.13;;
74577;SDS011;63173;49.086;33.418;2023-03-31T07:21:32;1.85;;;1.15;;
74577;SDS011;63173;49.086;33.418;2023-03-31T07:23:58;3.25;;;1.20;;
74577;SDS011;63173;49.086;33.418;2023-03-31T07:26:23;8.40;;;1.40;;
74577;SDS011;63173;49.086;33.418;2023-03-31T07:28:50;3.22;;;1.20;;
74577;SDS011;63173;49.086;33.418;2023-03-31T07:31:15;13.57;;;4.63;;
74577;SDS011;63173;49.086;33.418;2023-03-31T07:33:41;3.90;;;1.30;;
74577;SDS011;63173;49.086;33.418;2023-03-31T07:36:07;3.70;;;1.20;;
74577;SDS011;63173;49.086;33.418;2023-03-31T07:38:33;3.72;;;1.40;;
74577;SDS011;63173;49.086;33.418;2023-03-31T07:40:59;3.83;;;1.38;;
74577;SDS011;63173;49.086;33.418;2023-03-31T07:43:24;7.90;;;2.60;;
74577;SDS011;63173;49.086;33.418;2023-03-31T07:45:50;3.58;;;1.50;;
74577;SDS011;63173;49.086;33.418;2023-03-31T07:48:15;5.70;;;1.98;;
74577;SDS011;63173;49.086;33.418;2023-03-31T07:50:40;5.47;;;2.00;;
74577;SDS011;63173;49.086;33.418;2023-03-31T07:53:06;5.00;;;2.20;;
74577;SDS011;63173;49.086;33.418;2023-03-31T07:55:32;8.25;;;2.17;;
74577;SDS011;63173;49.086;33.418;2023-03-31T07:57:58;5.18;;;2.15;;
74577;SDS011;63173;49.086;33.418;2023-03-31T08:00:23;5.72;;;2.38;;
74577;SDS011;63173;49.086;33.418;2023-03-31T08:02:49;6.07;;;2.20;;
74577;SDS011;63173;49.086;33.418;2023-03-31T08:05:15;7.18;;;2.47;;
74577;SDS011;63173;49.086;33.418;2023-03-31T08:07:44;6.47;;;2.88;;
74577;SDS011;63173;49.086;33.418;2023-03-31T08:12:44;8.05;;;2.55;;
74577;SDS011;63173;49.086;33.418;2023-03-31T08:15:10;8.73;;;3.00;;
74577;SDS011;63173;49.086;33.418;2023-03-31T08:17:36;8.35;;;2.92;;
74577;SDS011;63173;49.086;33.418;2023-03-31T08:20:02;10.13;;;3.00;;
74577;SDS011;63173;49.086;33.418;2023-03-31T08:22:31;9.35;;;3.97;;
74577;SDS011;63173;49.086;33.418;2023-03-31T08:24:56;7.78;;;3.47;;
74577;SDS011;63173;49.086;33.418;2023-03-31T08:27:22;22.58;;;7.68;;
74577;SDS011;63173;49.086;33.418;2023-03-31T08:29:47;16.27;;;4.40;;
74577;SDS011;63173;49.086;33.418;2023-03-31T08:32:14;10.57;;;3.75;;
74577;SDS011;63173;49.086;33.418;2023-03-31T08:34:39;7.70;;;2.92;;
74577;SDS011;63173;49.086;33.418;2023-03-31T08:37:06;10.35;;;3.08;;
74577;SDS011;63173;49.086;33.418;2023-03-31T08:39:33;7.13;;;3.08;;
74577;SDS011;63173;49.086;33.418;2023-03-31T08:44:43;8.27;;;3.08;;
74577;SDS011;63173;49.086;33.418;2023-03-31T08:47:14;7.60;;;2.83;;
74577;SDS011;63173;49.086;33.418;2023-03-31T08:49:48;5.88;;;2.70;;
74577;SDS011;63173;49.086;33.418;2023-03-31T08:52:23;9.30;;;4.05;;
74577;SDS011;63173;49.086;33.418;2023-03-31T08:54:55;7.20;;;3.65;;
74577;SDS011;63173;49.086;33.418;2023-03-31T08:57:29;9.35;;;3.90;;
74577;SDS011;63173;49.086;33.418;2023-03-31T09:00:02;6.88;;;3.10;;
74577;SDS011;63173;49.086;33.418;2023-03-31T09:06:01;8.32;;;3.70;;
74577;SDS011;63173;49.086;33.418;2023-03-31T09:08:40;5.72;;;2.65;;
74577;SDS011;63173;49.086;33.418;2023-03-31T09:11:10;6.90;;;3.10;;
74577;SDS011;63173;49.086;33.418;2023-03-31T09:16:26;8.60;;;3.10;;
74577;SDS011;63173;49.086;33.418;2023-03-31T09:19:15;7.85;;;3.20;;
74577;SDS011;63173;49.086;33.418;2023-03-31T09:21:49;8.50;;;3.83;;
74577;SDS011;63173;49.086;33.418;2023-03-31T09:24:26;7.50;;;3.38;;
74577;SDS011;63173;49.086;33.418;2023-03-31T09:29:36;8.13;;;3.28;;
74577;SDS011;63173;49.086;33.418;2023-03-31T09:34:36;9.88;;;3.78;;
74577;SDS011;63173;49.086;33.418;2023-03-31T09:37:01;8.82;;;4.32;;
74577;SDS011;63173;49.086;33.418;2023-03-31T09:39:27;8.88;;;4.45;;
74577;SDS011;63173;49.086;33.418;2023-03-31T09:41:52;9.18;;;4.15;;
74577;SDS011;63173;49.086;33.418;2023-03-31T09:44:38;6.18;;;3.22;;
74577;SDS011;63173;49.086;33.418;2023-03-31T09:49:51;8.93;;;3.70;;
74577;SDS011;63173;49.086;33.418;2023-03-31T09:54:47;7.47;;;3.05;;
74577;SDS011;63173;49.086;33.418;2023-03-31T09:57:26;6.78;;;3.50;;
74577;SDS011;63173;49.086;33.418;2023-03-31T10:00:16;8.05;;;3.88;;
74577;SDS011;63173;49.086;33.418;2023-03-31T10:10:35;7.93;;;3.40;;
74577;SDS011;63173;49.086;33.418;2023-03-31T10:13:01;8.57;;;3.63;;
74577;SDS011;63173;49.086;33.418;2023-03-31T10:15:35;9.32;;;3.97;;
74577;SDS011;63173;49.086;33.418;2023-03-31T10:18:02;10.88;;;4.07;;
74577;SDS011;63173;49.086;33.418;2023-03-31T10:20:32;6.82;;;3.33;;
74577;SDS011;63173;49.086;33.418;2023-03-31T10:23:17;9.90;;;4.40;;
74577;SDS011;63173;49.086;33.418;2023-03-31T10:25:50;10.43;;;3.58;;
74577;SDS011;63173;49.086;33.418;2023-03-31T10:28:17;8.45;;;3.47;;
74577;SDS011;63173;49.086;33.418;2023-03-31T10:30:48;9.00;;;3.53;;
74577;SDS011;63173;49.086;33.418;2023-03-31T10:33:20;8.55;;;3.38;;
74577;SDS011;63173;49.086;33.418;2023-03-31T10:35:58;10.50;;;3.15;;
74577;SDS011;63173;49.086;33.418;2023-03-31T10:38:26;9.23;;;3.00;;
74577;SDS011;63173;49.086;33.418;2023-03-31T10:40:56;5.57;;;2.90;;
74577;SDS011;63173;49.086;33.418;2023-03-31T10:43:27;6.45;;;3.05;;
74577;SDS011;63173;49.086;33.418;2023-03-31T10:51:19;6.95;;;2.90;;
74577;SDS011;63173;49.086;33.418;2023-03-31T10:53:53;8.15;;;3.03;;
74577;SDS011;63173;49.086;33.418;2023-03-31T11:05:02;7.22;;;3.45;;
74577;SDS011;63173;49.086;33.418;2023-03-31T11:07:42;7.80;;;2.25;;
74577;SDS011;63173;49.086;33.418;2023-03-31T11:16:49;8.02;;;2.42;;
74577;SDS011;63173;49.086;33.418;2023-03-31T11:25:49;5.88;;;2.72;;
74577;SDS011;63173;49.086;33.418;2023-03-31T11:30:42;5.68;;;2.53;;
74577;SDS011;63173;49.086;33.418;2023-03-31T11:38:42;9.65;;;2.42;;
74577;SDS011;63173;49.086;33.418;2023-03-31T11:43:57;5.88;;;2.67;;
74577;SDS011;63173;49.086;33.418;2023-03-31T11:49:10;5.32;;;2.17;;
74577;SDS011;63173;49.086;33.418;2023-03-31T11:54:22;6.18;;;2.60;;
74577;SDS011;63173;49.086;33.418;2023-03-31T11:56:53;4.68;;;2.50;;
74577;SDS011;63173;49.086;33.418;2023-03-31T11:59:20;6.57;;;3.13;;
74577;SDS011;63173;49.086;33.418;2023-03-31T12:01:58;4.95;;;2.47;;
74577;SDS011;63173;49.086;33.418;2023-03-31T12:07:51;9.27;;;2.95;;
74577;SDS011;63173;49.086;33.418;2023-03-31T12:10:18;5.07;;;2.67;;
74577;SDS011;63173;49.086;33.418;2023-03-31T12:12:51;5.90;;;2.40;;
74577;SDS011;63173;49.086;33.418;2023-03-31T12:15:24;6.60;;;2.63;;
74577;SDS011;63173;49.086;33.418;2023-03-31T12:17:59;7.82;;;2.63;;
74577;SDS011;63173;49.086;33.418;2023-03-31T12:22:52;5.33;;;2.70;;
74577;SDS011;63173;49.086;33.418;2023-03-31T12:25:20;4.53;;;2.30;;
74577;SDS011;63173;49.086;33.418;2023-03-31T12:27:52;4.75;;;2.15;;
74577;SDS011;63173;49.086;33.418;2023-03-31T12:33:00;7.97;;;2.92;;
74577;SDS011;63173;49.086;33.418;2023-03-31T12:49:34;6.03;;;2.40;;
74577;SDS011;63173;49.086;33.418;2023-03-31T12:52:05;8.57;;;2.33;;
74577;SDS011;63173;49.086;33.418;2023-03-31T12:57:38;6.80;;;2.83;;
74577;SDS011;63173;49.086;33.418;2023-03-31T13:02:36;5.00;;;2.08;;
74577;SDS011;63173;49.086;33.418;2023-03-31T13:08:12;5.82;;;2.30;;
74577;SDS011;63173;49.086;33.418;2023-03-31T13:11:06;4.68;;;2.30;;
74577;SDS011;63173;49.086;33.418;2023-03-31T13:13:32;4.00;;;2.00;;
74577;SDS011;63173;49.086;33.418;2023-03-31T13:15:57;5.70;;;1.90;;
74577;SDS011;63173;49.086;33.418;2023-03-31T13:18:26;6.03;;;2.10;;
74577;SDS011;63173;49.086;33.418;2023-03-31T13:21:02;3.63;;;1.90;;
74577;SDS011;63173;49.086;33.418;2023-03-31T13:23:38;7.57;;;2.00;;
74577;SDS011;63173;49.086;33.418;2023-03-31T13:34:24;4.15;;;2.00;;
74577;SDS011;63173;49.086;33.418;2023-03-31T13:45:25;8.05;;;2.13;;
74577;SDS011;63173;49.086;33.418;2023-03-31T14:05:21;9.85;;;2.10;;
74577;SDS011;63173;49.086;33.418;2023-03-31T14:10:25;6.53;;;2.78;;
74577;SDS011;63173;49.086;33.418;2023-03-31T14:12:51;5.03;;;2.40;;
74577;SDS011;63173;49.086;33.418;2023-03-31T14:15:28;7.88;;;2.78;;
74577;SDS011;63173;49.086;33.418;2023-03-31T14:17:53;6.65;;;2.72;;
74577;SDS011;63173;49.086;33.418;2023-03-31T14:23:09;6.60;;;3.22;;
74577;SDS011;63173;49.086;33.418;2023-03-31T14:34:02;5.82;;;2.47;;
74577;SDS011;63173;49.086;33.418;2023-03-31T14:36:46;4.53;;;2.35;;
74577;SDS011;63173;49.086;33.418;2023-03-31T14:39:21;5.82;;;2.45;;
74577;SDS011;63173;49.086;33.418;2023-03-31T14:41:52;6.60;;;2.75;;
74577;SDS011;63173;49.086;33.418;2023-03-31T14:44:19;8.38;;;3.30;;
74577;SDS011;63173;49.086;33.418;2023-03-31T14:46:45;6.97;;;2.80;;
74577;SDS011;63173;49.086;33.418;2023-03-31T14:49:15;10.63;;;3.53;;
74577;SDS011;63173;49.086;33.418;2023-03-31T14:51:45;9.75;;;4.53;;
74577;SDS011;63173;49.086;33.418;2023-03-31T14:54:17;9.57;;;4.20;;
74577;SDS011;63173;49.086;33.418;2023-03-31T14:56:51;13.55;;;4.63;;
74577;SDS011;63173;49.086;33.418;2023-03-31T14:59:26;11.02;;;5.03;;
74577;SDS011;63173;49.086;33.418;2023-03-31T15:01:55;9.95;;;3.80;;
74577;SDS011;63173;49.086;33.418;2023-03-31T15:04:23;7.05;;;3.42;;
74577;SDS011;63173;49.086;33.418;2023-03-31T15:06:52;6.88;;;3.22;;
74577;SDS011;63173;49.086;33.418;2023-03-31T15:09:26;6.00;;;2.67;;
74577;SDS011;63173;49.086;33.418;2023-03-31T15:11:57;5.80;;;2.58;;
74577;SDS011;63173;49.086;33.418;2023-03-31T15:14:35;7.63;;;3.55;;
74577;SDS011;63173;49.086;33.418;2023-03-31T15:17:14;7.30;;;3.58;;
74577;SDS011;63173;49.086;33.418;2023-03-31T15:19:42;10.25;;;4.15;;
74577;SDS011;63173;49.086;33.418;2023-03-31T15:22:11;7.68;;;3.50;;
74577;SDS011;63173;49.086;33.418;2023-03-31T15:24:40;6.78;;;3.28;;
74577;SDS011;63173;49.086;33.418;2023-03-31T15:27:07;8.18;;;4.18;;
74577;SDS011;63173;49.086;33.418;2023-03-31T15:29:45;11.80;;;3.60;;
74577;SDS011;63173;49.086;33.418;2023-03-31T15:32:14;6.75;;;3.55;;
74577;SDS011;63173;49.086;33.418;2023-03-31T15:34:46;7.78;;;3.13;;
74577;SDS011;63173;49.086;33.418;2023-03-31T15:37:14;7.05;;;2.70;;
74577;SDS011;63173;49.086;33.418;2023-03-31T15:39:42;5.22;;;2.47;;
74577;SDS011;63173;49.086;33.418;2023-03-31T15:42:10;8.02;;;2.83;;
74577;SDS011;63173;49.086;33.418;2023-03-31T15:49:53;7.22;;;2.97;;
74577;SDS011;63173;49.086;33.418;2023-03-31T15:52:30;7.95;;;3.28;;
74577;SDS011;63173;49.086;33.418;2023-03-31T15:55:23;8.38;;;3.65;;
74577;SDS011;63173;49.086;33.418;2023-03-31T15:57:48;8.20;;;3.35;;
74577;SDS011;63173;49.086;33.418;2023-03-31T16:02:55;9.57;;;3.70;;
74577;SDS011;63173;49.086;33.418;2023-03-31T16:05:41;11.93;;;6.15;;
74577;SDS011;63173;49.086;33.418;2023-03-31T16:08:27;12.70;;;5.80;;
74577;SDS011;63173;49.086;33.418;2023-03-31T16:11:00;30.48;;;11.48;;
74577;SDS011;63173;49.086;33.418;2023-03-31T16:13:30;21.08;;;8.02;;
74577;SDS011;63173;49.086;33.418;2023-03-31T16:15:56;14.75;;;6.40;;
74577;SDS011;63173;49.086;33.418;2023-03-31T16:20:59;10.75;;;5.38;;
74577;SDS011;63173;49.086;33.418;2023-03-31T16:23:28;17.00;;;5.00;;
74577;SDS011;63173;49.086;33.418;2023-03-31T16:25:56;14.88;;;5.57;;
74577;SDS011;63173;49.086;33.418;2023-03-31T16:28:27;13.88;;;5.68;;
74577;SDS011;63173;49.086;33.418;2023-03-31T16:30:55;15.20;;;6.38;;
74577;SDS011;63173;49.086;33.418;2023-03-31T16:33:22;10.65;;;5.10;;
74577;SDS011;63173;49.086;33.418;2023-03-31T16:35:49;15.82;;;6.20;;
74577;SDS011;63173;49.086;33.418;2023-03-31T16:38:18;13.98;;;5.85;;
74577;SDS011;63173;49.086;33.418;2023-03-31T16:40:46;10.13;;;4.35;;
74577;SDS011;63173;49.086;33.418;2023-03-31T16:43:18;13.02;;;5.20;;
74577;SDS011;63173;49.086;33.418;2023-03-31T16:45:55;18.23;;;5.63;;
74577;SDS011;63173;49.086;33.418;2023-03-31T16:48:25;14.05;;;6.28;;
74577;SDS011;63173;49.086;33.418;2023-03-31T16:50:53;24.42;;;8.98;;
74577;SDS011;63173;49.086;33.418;2023-03-31T16:53:22;22.33;;;8.20;;
74577;SDS011;63173;49.086;33.418;2023-03-31T16:55:50;24.23;;;8.02;;
74577;SDS011;63173;49.086;33.418;2023-03-31T16:58:16;20.13;;;8.25;;
74577;SDS011;63173;49.086;33.418;2023-03-31T17:00:42;33.80;;;10.70;;
74577;SDS011;63173;49.086;33.418;2023-03-31T17:03:09;26.20;;;11.30;;
74577;SDS011;63173;49.086;33.418;2023-03-31T17:05:46;25.30;;;9.55;;
74577;SDS011;63173;49.086;33.418;2023-03-31T17:08:14;19.45;;;7.63;;
74577;SDS011;63173;49.086;33.418;2023-03-31T17:10:40;17.52;;;6.25;;
74577;SDS011;63173;49.086;33.418;2023-03-31T17:13:06;17.30;;;6.00;;
74577;SDS011;63173;49.086;33.418;2023-03-31T17:15:33;12.65;;;5.70;;
74577;SDS011;63173;49.086;33.418;2023-03-31T17:18:00;17.15;;;6.22;;
74577;SDS011;63173;49.086;33.418;2023-03-31T17:20:27;12.73;;;5.43;;
74577;SDS011;63173;49.086;33.418;2023-03-31T17:22:54;15.52;;;4.20;;
74577;SDS011;63173;49.086;33.418;2023-03-31T17:25:20;10.45;;;4.75;;
74577;SDS011;63173;49.086;33.418;2023-03-31T17:27:45;10.23;;;4.88;;
74577;SDS011;63173;49.086;33.418;2023-03-31T17:30:11;13.23;;;4.35;;
74577;SDS011;63173;49.086;33.418;2023-03-31T17:32:39;20.98;;;7.28;;
74577;SDS011;63173;49.086;33.418;2023-03-31T17:35:05;13.20;;;4.13;;
74577;SDS011;63173;49.086;33.418;2023-03-31T17:37:31;12.45;;;4.20;;
74577;SDS011;63173;49.086;33.418;2023-03-31T17:39:58;12.82;;;4.18;;
74577;SDS011;63173;49.086;33.418;2023-03-31T17:42:23;11.57;;;3.95;;
74577;SDS011;63173;49.086;33.418;2023-03-31T17:44:49;9.52;;;3.72;;
74577;SDS011;63173;49.086;33.418;2023-03-31T17:47:17;13.68;;;3.38;;
74577;SDS011;63173;49.086;33.418;2023-03-31T17:49:44;11.77;;;3.80;;
74577;SDS011;63173;49.086;33.418;2023-03-31T17:52:10;10.18;;;3.80;;
74577;SDS011;63173;49.086;33.418;2023-03-31T17:54:37;10.48;;;3.47;;
74577;SDS011;63173;49.086;33.418;2023-03-31T17:57:03;12.02;;;3.75;;
74577;SDS011;63173;49.086;33.418;2023-03-31T17:59:28;13.70;;;3.20;;